createdAt,value
2018-05-25T00:02:09.235Z,15.73
2018-05-25T00:04:37.426Z,15.33
2018-05-25T00:07:05.594Z,15.83
2018-05-25T00:09:33.805Z,14.63
2018-05-25T00:12:01.952Z,15.60
2018-05-25T00:14:30.159Z,15.40
2018-05-25T00:16:58.329Z,15.93
2018-05-25T00:19:26.531Z,16.60
2018-05-25T00:21:54.724Z,15.13
2018-05-25T00:24:22.905Z,15.27
2018-05-25T00:26:51.106Z,16.30
2018-05-25T00:29:19.274Z,15.67
2018-05-25T00:31:47.482Z,15.27
2018-05-25T00:34:15.644Z,15.97
2018-05-25T00:36:43.833Z,16.87
2018-05-25T00:39:12.099Z,16.07
2018-05-25T00:41:40.275Z,16.70
2018-05-25T00:44:10.168Z,16.83
2018-05-25T00:46:41.246Z,16.53
2018-05-25T00:49:09.454Z,16.03
2018-05-25T00:51:37.647Z,16.27
2018-05-25T00:54:05.833Z,16.00
2018-05-25T00:56:34.112Z,16.60
2018-05-25T00:59:02.290Z,16.53
2018-05-25T01:01:30.441Z,16.17
2018-05-25T01:03:58.652Z,16.13
2018-05-25T01:06:26.859Z,16.37
2018-05-25T01:08:55.015Z,16.80
2018-05-25T01:11:23.176Z,15.80
2018-05-25T01:13:51.380Z,15.70
2018-05-25T01:16:19.536Z,16.63
2018-05-25T01:18:47.713Z,16.90
2018-05-25T01:21:15.908Z,17.20
2018-05-25T01:23:44.085Z,15.33
2018-05-25T01:26:12.269Z,16.07
2018-05-25T01:28:40.509Z,17.23
2018-05-25T01:31:08.674Z,16.80
2018-05-25T01:33:36.872Z,16.80
2018-05-25T01:36:05.034Z,16.33
2018-05-25T01:38:33.187Z,17.37
2018-05-25T01:41:01.372Z,17.87
2018-05-25T01:43:29.526Z,17.40
2018-05-25T01:45:57.703Z,17.17
2018-05-25T01:48:25.892Z,17.30
2018-05-25T01:50:54.073Z,16.73
2018-05-25T01:53:22.276Z,17.47
2018-05-25T01:55:50.437Z,18.30
2018-05-25T01:58:18.600Z,17.40
2018-05-25T02:00:46.814Z,17.43
2018-05-25T02:03:15.000Z,18.47
2018-05-25T02:05:43.181Z,19.20
2018-05-25T02:08:11.342Z,18.07
2018-05-25T02:10:39.520Z,18.47
2018-05-25T02:13:07.720Z,17.67
2018-05-25T02:15:35.904Z,18.27
2018-05-25T02:18:04.061Z,18.63
2018-05-25T02:20:32.276Z,18.53
2018-05-25T02:23:14.085Z,18.23
2018-05-25T02:25:44.837Z,18.73
2018-05-25T02:28:13.015Z,19.13
2018-05-25T02:30:41.215Z,19.33
2018-05-25T02:33:09.367Z,19.23
2018-05-25T02:35:37.647Z,18.90
2018-05-25T02:38:05.807Z,19.30
2018-05-25T02:40:33.988Z,18.97
2018-05-25T02:43:02.172Z,19.03
2018-05-25T02:45:30.384Z,18.50
2018-05-25T02:47:58.540Z,18.97
2018-05-25T02:50:26.770Z,19.57
2018-05-25T02:52:54.941Z,19.50
2018-05-25T02:55:23.134Z,19.73
2018-05-25T02:57:51.326Z,19.77
2018-05-25T03:00:19.595Z,20.07
2018-05-25T03:02:47.796Z,20.20
2018-05-25T03:05:15.969Z,21.37
2018-05-25T03:07:44.153Z,21.07
2018-05-25T03:10:12.332Z,20.70
2018-05-25T03:12:40.613Z,20.50
2018-05-25T03:15:08.773Z,20.30
2018-05-25T03:17:36.980Z,20.83
2018-05-25T03:20:05.488Z,20.20
2018-05-25T03:22:33.682Z,21.37
2018-05-25T03:25:01.871Z,20.83
2018-05-25T03:27:30.042Z,21.70
2018-05-25T03:29:58.213Z,21.63
2018-05-25T03:32:26.802Z,20.00
2018-05-25T03:34:54.999Z,21.70
2018-05-25T03:37:23.191Z,21.13
2018-05-25T03:39:51.380Z,19.83
2018-05-25T03:42:19.558Z,21.67
2018-05-25T03:44:47.760Z,21.83
2018-05-25T03:47:15.933Z,23.00
2018-05-25T03:49:44.122Z,22.30
2018-05-25T03:52:12.301Z,21.73
2018-05-25T03:54:40.476Z,22.30
2018-05-25T03:57:08.674Z,22.00
2018-05-25T03:59:48.364Z,21.27
2018-05-25T04:02:17.380Z,21.00
2018-05-25T04:04:45.563Z,21.77
2018-05-25T04:07:13.728Z,21.30
2018-05-25T04:09:43.604Z,21.37
2018-05-25T04:12:11.761Z,23.70
2018-05-25T04:14:39.938Z,23.37
2018-05-25T04:17:08.115Z,23.27
2018-05-25T04:19:43.165Z,25.43
2018-05-25T04:22:21.110Z,21.77
2018-05-25T04:24:49.636Z,22.70
2018-05-25T04:27:18.543Z,23.73
2018-05-25T04:29:46.758Z,21.33
2018-05-25T04:32:14.931Z,21.83
2018-05-25T04:34:43.126Z,22.03
2018-05-25T04:37:11.300Z,22.20
2018-05-25T04:39:42.035Z,23.40
2018-05-25T04:42:10.213Z,21.63
2018-05-25T04:44:38.430Z,22.37
2018-05-25T04:47:06.593Z,22.40
2018-05-25T04:49:34.787Z,21.23
2018-05-25T04:52:03.089Z,20.70
2018-05-25T04:54:31.271Z,22.93
2018-05-25T04:56:59.455Z,21.40
2018-05-25T04:59:27.629Z,21.47
2018-05-25T05:01:55.838Z,20.97
2018-05-25T05:04:24.011Z,21.33
2018-05-25T05:06:52.213Z,20.70
2018-05-25T05:09:20.394Z,19.80
2018-05-25T05:11:48.609Z,19.83
2018-05-25T05:14:16.769Z,20.40
2018-05-25T05:16:45.158Z,20.90
2018-05-25T05:19:13.867Z,20.63
2018-05-25T05:21:42.205Z,20.53
2018-05-25T05:24:10.368Z,19.70
2018-05-25T05:26:38.588Z,18.87
2018-05-25T05:29:06.756Z,20.80
2018-05-25T05:31:34.949Z,19.77
2018-05-25T05:34:06.162Z,20.07
2018-05-25T05:36:39.908Z,21.67
2018-05-25T05:39:15.183Z,20.30
2018-05-25T05:41:53.833Z,20.90
2018-05-25T05:44:27.246Z,20.20
2018-05-25T05:50:10.449Z,21.37
2018-05-25T05:52:45.696Z,19.87
2018-05-25T05:55:17.819Z,20.30
2018-05-25T05:57:50.569Z,20.27
2018-05-25T06:00:24.814Z,19.17
2018-05-25T06:02:58.548Z,20.37
2018-05-25T06:05:38.813Z,19.80
2018-05-25T06:08:09.131Z,19.87
2018-05-25T06:10:37.360Z,19.97
2018-05-25T06:13:05.525Z,20.33
2018-05-25T06:15:33.731Z,19.97
2018-05-25T06:18:01.947Z,19.93
2018-05-25T06:20:30.109Z,20.40
2018-05-25T06:22:58.328Z,21.47
2018-05-25T06:25:26.524Z,19.63
2018-05-25T06:27:54.733Z,20.10
2018-05-25T06:30:22.974Z,21.70
2018-05-25T06:32:51.185Z,21.63
2018-05-25T06:35:19.381Z,23.33
2018-05-25T06:37:47.592Z,23.33
2018-05-25T06:40:15.800Z,22.83
2018-05-25T06:42:44.001Z,24.37
2018-05-25T06:45:12.174Z,24.87
2018-05-25T06:47:40.444Z,23.23
2018-05-25T06:50:08.644Z,23.97
2018-05-25T06:52:36.800Z,22.13
2018-05-25T06:55:04.996Z,22.97
2018-05-25T06:57:33.162Z,23.27
2018-05-25T07:00:01.437Z,24.00
2018-05-25T07:02:29.604Z,23.63
2018-05-25T07:07:32.287Z,23.67
2018-05-25T07:10:00.507Z,21.87
2018-05-25T07:12:28.692Z,22.80
2018-05-25T07:14:56.863Z,23.10
2018-05-25T07:17:25.078Z,23.13
2018-05-25T07:19:53.226Z,21.73
2018-05-25T07:22:21.440Z,21.90
2018-05-25T07:24:49.609Z,21.67
2018-05-25T07:27:18.809Z,21.67
2018-05-25T07:29:46.993Z,22.30
2018-05-25T07:32:15.864Z,21.50
2018-05-25T07:34:44.056Z,22.83
2018-05-25T07:37:12.247Z,21.10
2018-05-25T07:39:40.422Z,21.60
2018-05-25T07:42:08.601Z,20.57
2018-05-25T07:44:36.809Z,22.13
2018-05-25T07:47:05.030Z,22.50
2018-05-25T07:49:33.214Z,21.00
2018-05-25T07:52:01.388Z,21.27
2018-05-25T07:54:29.581Z,20.40
2018-05-25T07:56:57.825Z,21.67
2018-05-25T07:59:26.009Z,21.00
2018-05-25T08:01:54.176Z,20.37
2018-05-25T08:04:22.358Z,21.67
2018-05-25T08:06:50.518Z,20.20
2018-05-25T08:09:18.738Z,21.37
2018-05-25T08:11:46.895Z,20.47
2018-05-25T08:14:15.067Z,19.70
2018-05-25T08:16:43.279Z,18.17
2018-05-25T08:19:11.437Z,19.93
2018-05-25T08:21:39.669Z,19.13
2018-05-25T08:24:07.800Z,19.40
2018-05-25T08:26:36.014Z,19.33
2018-05-25T08:29:04.192Z,18.30
2018-05-25T08:31:32.385Z,18.87
2018-05-25T08:34:00.592Z,18.27
2018-05-25T08:36:28.908Z,17.27
2018-05-25T08:38:57.180Z,18.03
2018-05-25T08:41:25.326Z,17.90
2018-05-25T08:43:53.615Z,18.77
2018-05-25T08:46:21.878Z,17.57
2018-05-25T08:48:50.077Z,16.57
2018-05-25T08:51:18.267Z,17.30
2018-05-25T08:53:46.466Z,17.70
2018-05-25T08:56:14.630Z,16.63
2018-05-25T08:58:42.876Z,17.63
2018-05-25T09:01:11.054Z,17.50
2018-05-25T09:03:39.225Z,18.47
2018-05-25T09:06:07.444Z,18.57
2018-05-25T09:08:35.604Z,18.17
2018-05-25T09:11:03.780Z,17.17
2018-05-25T09:13:31.948Z,17.73
2018-05-25T09:16:00.154Z,16.30
2018-05-25T09:18:28.341Z,16.67
2018-05-25T09:20:56.542Z,15.37
2018-05-25T09:23:24.701Z,16.67
2018-05-25T09:25:52.903Z,15.83
2018-05-25T09:28:21.091Z,15.40
2018-05-25T09:30:49.254Z,14.23
2018-05-25T09:33:17.459Z,16.57
2018-05-25T09:35:45.633Z,16.30
2018-05-25T09:38:13.833Z,16.60
2018-05-25T09:40:42.031Z,16.37
2018-05-25T09:43:10.199Z,16.67
2018-05-25T09:45:38.394Z,16.67
2018-05-25T09:48:06.587Z,15.83
2018-05-25T09:50:35.703Z,17.57
2018-05-25T09:53:03.902Z,15.40
2018-05-25T09:55:32.079Z,15.60
2018-05-25T09:58:00.277Z,18.30
2018-05-25T10:00:28.446Z,17.60
2018-05-25T10:02:56.658Z,15.53
2018-05-25T10:05:24.834Z,18.40
2018-05-25T10:07:53.030Z,17.60
2018-05-25T10:10:21.220Z,16.40
2018-05-25T10:12:49.400Z,15.47
2018-05-25T10:15:17.577Z,14.40
2018-05-25T10:17:45.791Z,14.53
2018-05-25T10:20:13.971Z,15.90
2018-05-25T10:22:42.184Z,15.00
2018-05-25T10:25:10.357Z,16.03
2018-05-25T10:27:38.560Z,17.63
2018-05-25T10:30:06.747Z,16.83
2018-05-25T10:32:35.006Z,15.47
2018-05-25T10:35:03.214Z,16.50
2018-05-25T10:37:31.373Z,16.97
2018-05-25T10:39:59.565Z,15.10
2018-05-25T10:42:27.742Z,14.53
2018-05-25T10:44:55.940Z,16.37
2018-05-25T10:47:24.100Z,16.93
2018-05-25T10:49:52.283Z,15.30
2018-05-25T10:52:20.464Z,15.60
2018-05-25T10:54:48.632Z,15.23
2018-05-25T10:57:16.843Z,13.87
2018-05-25T10:59:45.015Z,14.40
2018-05-25T11:02:13.211Z,15.37
2018-05-25T11:04:41.385Z,12.37
2018-05-25T11:07:09.541Z,12.43
2018-05-25T11:09:37.737Z,12.87
2018-05-25T11:12:05.933Z,13.37
2018-05-25T11:14:34.145Z,12.10
2018-05-25T11:17:02.348Z,11.07
2018-05-25T11:19:30.524Z,9.90
2018-05-25T11:21:58.740Z,10.70
2018-05-25T11:24:26.910Z,10.97
2018-05-25T11:26:55.401Z,11.10
2018-05-25T11:29:23.566Z,10.43
2018-05-25T11:31:51.740Z,9.53
2018-05-25T11:34:19.961Z,11.13
2018-05-25T11:36:48.116Z,11.07
2018-05-25T11:39:16.318Z,10.97
2018-05-25T11:41:44.482Z,10.83
2018-05-25T11:44:12.683Z,10.60
2018-05-25T11:46:40.872Z,10.50
2018-05-25T11:49:09.070Z,10.37
2018-05-25T11:51:37.257Z,10.07
2018-05-25T11:54:05.424Z,10.33
2018-05-25T11:56:33.608Z,10.00
2018-05-25T11:59:01.770Z,9.40
2018-05-25T12:01:29.965Z,9.60
2018-05-25T12:03:58.137Z,9.15
2018-05-25T12:06:26.321Z,8.50
2018-05-25T12:08:54.501Z,8.38
2018-05-25T12:11:22.679Z,9.10
2018-05-25T12:13:50.942Z,8.80
2018-05-25T12:16:19.118Z,10.13
2018-05-25T12:18:47.373Z,9.38
2018-05-25T12:21:15.524Z,10.25
2018-05-25T12:23:43.723Z,9.18
2018-05-25T12:26:11.877Z,9.68
2018-05-25T12:28:40.105Z,9.65
2018-05-25T12:31:08.280Z,9.02
2018-05-25T12:33:36.481Z,9.02
2018-05-25T12:36:04.763Z,8.18
2018-05-25T12:38:32.976Z,8.65
2018-05-25T12:41:01.157Z,8.10
2018-05-25T12:43:29.347Z,8.45
2018-05-25T12:45:57.534Z,9.95
2018-05-25T12:48:25.999Z,9.32
2018-05-25T12:50:54.213Z,8.55
2018-05-25T12:53:22.365Z,6.12
2018-05-25T12:55:50.548Z,6.50
2018-05-25T12:58:18.747Z,6.35
2018-05-25T13:00:46.918Z,6.12
2018-05-25T13:03:15.098Z,6.65
2018-05-25T13:05:43.250Z,6.22
2018-05-25T13:08:11.442Z,7.00
2018-05-25T13:10:40.352Z,8.07
2018-05-25T13:13:08.558Z,8.70
2018-05-25T13:15:36.714Z,8.67
2018-05-25T13:18:04.910Z,8.23
2018-05-25T13:20:33.065Z,7.85
2018-05-25T13:23:01.272Z,8.13
2018-05-25T13:25:29.464Z,8.30
2018-05-25T13:27:57.624Z,8.52
2018-05-25T13:30:25.818Z,9.10
2018-05-25T13:32:53.973Z,8.02
2018-05-25T13:35:22.172Z,7.97
2018-05-25T13:37:50.330Z,8.13
2018-05-25T13:40:18.515Z,7.30
2018-05-25T13:42:46.724Z,7.87
2018-05-25T13:45:14.881Z,7.90
2018-05-25T13:47:43.064Z,7.28
2018-05-25T13:50:11.220Z,8.68
2018-05-25T13:52:39.408Z,8.82
2018-05-25T13:55:07.557Z,8.23
2018-05-25T13:57:36.141Z,7.72
2018-05-25T14:00:04.332Z,6.95
2018-05-25T14:02:32.495Z,7.30
2018-05-25T14:05:00.685Z,6.75
2018-05-25T14:07:28.849Z,8.18
2018-05-25T14:09:57.004Z,7.75
2018-05-25T14:12:25.179Z,7.47
2018-05-25T14:14:53.359Z,9.52
2018-05-25T14:17:21.541Z,7.75
2018-05-25T14:19:49.715Z,7.82
2018-05-25T14:22:17.867Z,7.87
2018-05-25T14:24:46.067Z,7.87
2018-05-25T14:27:14.261Z,7.00
2018-05-25T14:29:42.456Z,7.70
2018-05-25T14:32:10.618Z,6.72
2018-05-25T14:34:38.863Z,8.27
2018-05-25T14:37:07.029Z,7.15
2018-05-25T14:39:35.203Z,7.30
2018-05-25T14:42:03.459Z,7.15
2018-05-25T14:44:31.666Z,7.87
2018-05-25T14:46:59.842Z,7.62
2018-05-25T14:49:28.054Z,7.72
2018-05-25T14:51:56.205Z,7.95
2018-05-25T14:54:24.363Z,8.43
2018-05-25T14:56:52.544Z,7.03
2018-05-25T14:59:20.737Z,7.43
2018-05-25T15:01:48.925Z,7.75
2018-05-25T15:04:17.071Z,8.02
2018-05-25T15:06:45.262Z,7.87
2018-05-25T15:09:13.427Z,7.57
2018-05-25T15:11:41.607Z,8.07
2018-05-25T15:14:09.805Z,8.70
2018-05-25T15:16:37.967Z,8.55
2018-05-25T15:19:06.162Z,8.63
2018-05-25T15:21:34.322Z,7.62
2018-05-25T15:24:02.507Z,7.10
2018-05-25T15:26:30.711Z,7.97
2018-05-25T15:28:58.898Z,6.75
2018-05-25T15:31:27.082Z,7.50
2018-05-25T15:33:55.312Z,7.80
2018-05-25T15:36:23.513Z,6.87
2018-05-25T15:38:51.694Z,6.68
2018-05-25T15:41:19.880Z,7.05
2018-05-25T15:43:48.065Z,7.47
2018-05-25T15:46:16.217Z,6.28
2018-05-25T15:48:44.423Z,7.00
2018-05-25T15:51:12.585Z,7.62
2018-05-25T15:53:40.772Z,6.65
2018-05-25T15:56:08.918Z,5.40
2018-05-25T15:58:37.082Z,5.97
2018-05-25T16:01:05.260Z,6.37
2018-05-25T16:03:33.422Z,6.05
2018-05-25T16:06:01.640Z,6.20
2018-05-25T16:08:29.843Z,5.85
2018-05-25T16:10:58.053Z,6.93
2018-05-25T16:13:26.198Z,5.25
2018-05-25T16:15:54.397Z,5.65
2018-05-25T16:18:22.559Z,6.10
2018-05-25T16:20:50.752Z,5.43
2018-05-25T16:23:18.933Z,4.87
2018-05-25T16:25:47.108Z,4.95
2018-05-25T16:28:15.274Z,6.25
2018-05-25T16:30:43.545Z,5.73
2018-05-25T16:33:11.749Z,5.75
2018-05-25T16:35:39.898Z,6.10
2018-05-25T16:38:08.375Z,11.70
2018-05-25T16:40:36.553Z,6.07
2018-05-25T16:43:04.727Z,5.97
2018-05-25T16:45:32.874Z,5.67
2018-05-25T16:48:01.075Z,5.17
2018-05-25T16:50:29.270Z,4.95
2018-05-25T16:52:57.427Z,4.70
2018-05-25T16:55:25.596Z,5.97
2018-05-25T16:57:53.788Z,5.73
2018-05-25T17:00:21.924Z,4.82
2018-05-25T17:02:50.116Z,5.57
2018-05-25T17:05:18.354Z,7.97
2018-05-25T17:07:46.528Z,5.63
2018-05-25T17:10:14.729Z,4.93
2018-05-25T17:12:42.936Z,5.20
2018-05-25T17:15:11.122Z,5.50
2018-05-25T17:17:39.286Z,5.23
2018-05-25T17:20:07.465Z,6.73
2018-05-25T17:22:35.638Z,5.00
2018-05-25T17:25:04.161Z,5.87
2018-05-25T17:27:32.363Z,5.87
2018-05-25T17:30:00.524Z,5.50
2018-05-25T17:32:28.682Z,4.90
2018-05-25T17:34:56.857Z,5.53
2018-05-25T17:37:25.009Z,5.90
2018-05-25T17:39:53.172Z,4.70
2018-05-25T17:42:21.364Z,5.13
2018-05-25T17:44:49.538Z,5.50
2018-05-25T17:47:17.726Z,6.07
2018-05-25T17:49:45.869Z,5.23
2018-05-25T17:52:14.047Z,5.70
2018-05-25T17:54:42.215Z,5.27
2018-05-25T17:57:10.401Z,6.03
2018-05-25T17:59:38.575Z,5.57
2018-05-25T18:02:06.719Z,7.07
2018-05-25T18:04:34.898Z,6.35
2018-05-25T18:07:03.053Z,6.33
2018-05-25T18:09:31.234Z,9.13
2018-05-25T18:11:59.379Z,7.33
2018-05-25T18:14:27.576Z,6.67
2018-05-25T18:16:56.228Z,6.13
2018-05-25T18:19:24.382Z,6.07
2018-05-25T18:21:52.582Z,5.40
2018-05-25T18:24:20.856Z,6.27
2018-05-25T18:26:49.048Z,6.23
2018-05-25T18:29:17.230Z,6.33
2018-05-25T18:31:45.413Z,6.43
2018-05-25T18:34:13.579Z,6.67
2018-05-25T18:36:41.830Z,7.30
2018-05-25T18:39:10.002Z,7.00
2018-05-25T18:41:38.192Z,7.17
2018-05-25T18:44:06.403Z,7.13
2018-05-25T18:46:34.593Z,7.37
2018-05-25T18:49:02.767Z,8.57
2018-05-25T18:51:30.951Z,7.80
2018-05-25T18:54:11.031Z,9.73
2018-05-25T18:56:39.224Z,8.23
2018-05-25T18:59:07.380Z,7.53
2018-05-25T19:01:35.568Z,7.17
2018-05-25T19:04:03.798Z,14.57
2018-05-25T19:06:31.962Z,6.40
2018-05-25T19:09:00.117Z,7.03
2018-05-25T19:11:28.318Z,6.40
2018-05-25T19:13:56.503Z,6.60
2018-05-25T19:16:24.650Z,6.30
2018-05-25T19:18:52.841Z,6.73
2018-05-25T19:21:20.989Z,6.50
2018-05-25T19:23:49.161Z,5.90
2018-05-25T19:26:17.299Z,6.37
2018-05-25T19:28:45.514Z,6.03
2018-05-25T19:31:13.690Z,6.63
2018-05-25T19:33:41.893Z,7.00
2018-05-25T19:36:10.070Z,6.70
2018-05-25T19:38:38.273Z,6.57
2018-05-25T19:41:06.447Z,5.80
2018-05-25T19:43:34.597Z,6.90
2018-05-25T19:46:02.801Z,6.10
2018-05-25T19:48:30.935Z,6.30
2018-05-25T19:50:59.143Z,6.60
2018-05-25T19:53:27.289Z,6.33
2018-05-25T19:55:55.494Z,6.83
2018-05-25T19:58:23.646Z,7.40
2018-05-25T20:00:51.836Z,7.33
2018-05-25T20:03:20.118Z,11.87
2018-05-25T20:05:48.312Z,10.30
2018-05-25T20:08:16.515Z,8.13
2018-05-25T20:10:44.671Z,7.80
2018-05-25T20:13:12.872Z,6.73
2018-05-25T20:15:41.069Z,6.67
2018-05-25T20:18:09.233Z,6.60
2018-05-25T20:20:37.420Z,6.80
2018-05-25T20:23:05.576Z,6.43
2018-05-25T20:25:33.774Z,9.43
2018-05-25T20:28:01.955Z,7.77
2018-05-25T20:30:30.165Z,7.77
2018-05-25T20:32:58.373Z,8.13
2018-05-25T20:35:26.566Z,7.50
2018-05-25T20:37:54.724Z,7.37
2018-05-25T20:40:22.912Z,7.00
2018-05-25T20:42:51.078Z,7.20
2018-05-25T20:45:19.341Z,7.10
2018-05-25T20:47:47.503Z,7.33
2018-05-25T20:50:15.643Z,7.63
2018-05-25T20:52:43.862Z,7.93
2018-05-25T20:55:12.039Z,8.37
2018-05-25T20:57:40.208Z,7.67
2018-05-25T21:00:08.417Z,8.43
2018-05-25T21:02:36.592Z,7.93
2018-05-25T21:05:04.749Z,8.83
2018-05-25T21:07:32.944Z,8.40
2018-05-25T21:10:01.128Z,8.57
2018-05-25T21:12:29.275Z,9.13
2018-05-25T21:14:57.443Z,9.63
2018-05-25T21:17:25.647Z,9.27
2018-05-25T21:19:53.791Z,9.07
2018-05-25T21:22:21.999Z,7.87
2018-05-25T21:24:50.146Z,9.13
2018-05-25T21:27:18.360Z,10.67
2018-05-25T21:29:46.540Z,9.00
2018-05-25T21:32:14.735Z,8.67
2018-05-25T21:34:43.002Z,8.50
2018-05-25T21:37:11.199Z,9.43
2018-05-25T21:39:39.455Z,8.57
2018-05-25T21:42:07.605Z,8.40
2018-05-25T21:44:35.816Z,9.00
2018-05-25T21:47:03.968Z,8.67
2018-05-25T21:49:32.149Z,9.43
2018-05-25T21:52:00.343Z,8.93
2018-05-25T21:54:28.491Z,9.00
2018-05-25T21:56:56.679Z,8.20
2018-05-25T21:59:24.830Z,9.23
2018-05-25T22:01:53.038Z,8.70
2018-05-25T22:04:21.219Z,9.30
2018-05-25T22:06:49.428Z,7.87
2018-05-25T22:09:17.616Z,9.40
2018-05-25T22:11:45.807Z,9.50
2018-05-25T22:14:13.989Z,9.17
2018-05-25T22:16:42.214Z,8.77
2018-05-25T22:19:10.393Z,8.20
2018-05-25T22:21:38.603Z,9.00
2018-05-25T22:24:06.809Z,9.77
2018-05-25T22:26:34.957Z,8.83
2018-05-25T22:29:03.162Z,8.73
2018-05-25T22:31:31.345Z,9.23
2018-05-25T22:33:59.547Z,8.47
2018-05-25T22:36:27.721Z,9.47
2018-05-25T22:38:55.927Z,8.67
2018-05-25T22:41:24.114Z,8.50
2018-05-25T22:44:04.169Z,9.40
2018-05-25T22:46:44.297Z,9.73
2018-05-25T22:49:24.296Z,9.43
2018-05-25T22:52:04.300Z,9.13
2018-05-25T22:54:38.026Z,10.27
2018-05-25T22:57:06.198Z,10.37
2018-05-25T22:59:34.358Z,10.10
2018-05-25T23:02:02.546Z,8.57
2018-05-25T23:04:30.712Z,9.27
2018-05-25T23:06:58.915Z,9.40
2018-05-25T23:09:27.165Z,9.30
2018-05-25T23:11:55.370Z,9.67
2018-05-25T23:14:23.578Z,9.70
2018-05-25T23:16:51.736Z,9.27
2018-05-25T23:19:19.958Z,8.87
2018-05-25T23:21:48.236Z,9.63
2018-05-25T23:24:16.441Z,8.23
2018-05-25T23:26:44.639Z,8.83
2018-05-25T23:29:12.790Z,9.20
2018-05-25T23:31:40.992Z,10.23
2018-05-25T23:34:09.425Z,9.67
2018-05-25T23:39:11.949Z,9.37
2018-05-25T23:41:40.145Z,9.93
2018-05-25T23:44:08.309Z,9.50
2018-05-25T23:46:36.480Z,9.27
2018-05-25T23:49:04.667Z,9.50
2018-05-25T23:51:32.818Z,9.47
2018-05-25T23:54:00.988Z,9.70
2018-05-25T23:56:29.142Z,9.37
2018-05-25T23:58:57.342Z,9.87
